sensor_id;sensor_type;location;lat;lon;timestamp;temperature;humidity
2603;DHT22;1311;47.966;7.958;2023-05-07T00:01:31;11.90;99.90
2603;DHT22;1311;47.966;7.958;2023-05-07T00:03:58;11.80;99.90
2603;DHT22;1311;47.966;7.958;2023-05-07T00:06:25;11.80;99.90
2603;DHT22;1311;47.966;7.958;2023-05-07T00:08:54;11.80;99.90
2603;DHT22;1311;47.966;7.958;2023-05-07T00:11:21;11.70;99.90
2603;DHT22;1311;47.966;7.958;2023-05-07T00:13:48;11.80;99.90
2603;DHT22;1311;47.966;7.958;2023-05-07T00:16:15;11.80;99.90
2603;DHT22;1311;47.966;7.958;2023-05-07T00:18:44;11.80;99.90
2603;DHT22;1311;47.966;7.958;2023-05-07T00:21:11;11.70;99.90
2603;DHT22;1311;47.966;7.958;2023-05-07T00:23:38;11.70;99.90
2603;DHT22;1311;47.966;7.958;2023-05-07T00:26:05;11.70;99.90
2603;DHT22;1311;47.966;7.958;2023-05-07T00:28:31;11.70;99.90
2603;DHT22;1311;47.966;7.958;2023-05-07T00:30:58;11.70;99.90
2603;DHT22;1311;47.966;7.958;2023-05-07T00:33:25;11.70;99.90
2603;DHT22;1311;47.966;7.958;2023-05-07T00:35:53;11.70;99.90
2603;DHT22;1311;47.966;7.958;2023-05-07T00:38:20;11.70;99.90
2603;DHT22;1311;47.966;7.958;2023-05-07T00:40:47;11.70;99.90
2603;DHT22;1311;47.966;7.958;2023-05-07T00:43:14;11.70;99.90
2603;DHT22;1311;47.966;7.958;2023-05-07T00:45:41;11.70;99.90
2603;DHT22;1311;47.966;7.958;2023-05-07T00:48:08;11.70;99.90
2603;DHT22;1311;47.966;7.958;2023-05-07T00:50:35;11.80;99.90
2603;DHT22;1311;47.966;7.958;2023-05-07T00:53:04;11.80;99.90
2603;DHT22;1311;47.966;7.958;2023-05-07T00:55:31;11.80;99.90
2603;DHT22;1311;47.966;7.958;2023-05-07T00:57:58;11.80;99.90
2603;DHT22;1311;47.966;7.958;2023-05-07T01:00:25;11.80;99.90
2603;DHT22;1311;47.966;7.958;2023-05-07T01:02:52;11.80;99.90
2603;DHT22;1311;47.966;7.958;2023-05-07T01:05:20;11.80;99.90
2603;DHT22;1311;47.966;7.958;2023-05-07T01:07:49;11.80;99.90
2603;DHT22;1311;47.966;7.958;2023-05-07T01:10:18;11.80;99.90
2603;DHT22;1311;47.966;7.958;2023-05-07T01:12:45;11.90;99.90
2603;DHT22;1311;47.966;7.958;2023-05-07T01:15:13;11.80;99.90
2603;DHT22;1311;47.966;7.958;2023-05-07T01:17:41;11.80;99.90
2603;DHT22;1311;47.966;7.958;2023-05-07T01:20:09;11.80;99.90
2603;DHT22;1311;47.966;7.958;2023-05-07T01:22:38;11.80;99.90
2603;DHT22;1311;47.966;7.958;2023-05-07T01:25:06;11.80;99.90
2603;DHT22;1311;47.966;7.958;2023-05-07T01:27:33;11.80;99.90
2603;DHT22;1311;47.966;7.958;2023-05-07T01:30:01;11.80;99.90
2603;DHT22;1311;47.966;7.958;2023-05-07T01:32:31;11.70;99.90
2603;DHT22;1311;47.966;7.958;2023-05-07T01:35:00;11.70;99.90
2603;DHT22;1311;47.966;7.958;2023-05-07T01:37:28;11.70;99.90
2603;DHT22;1311;47.966;7.958;2023-05-07T01:39:57;11.70;99.90
2603;DHT22;1311;47.966;7.958;2023-05-07T01:42:24;11.60;99.90
2603;DHT22;1311;47.966;7.958;2023-05-07T01:44:51;11.60;99.90
2603;DHT22;1311;47.966;7.958;2023-05-07T01:47:17;11.60;99.90
2603;DHT22;1311;47.966;7.958;2023-05-07T01:49:45;11.50;99.90
2603;DHT22;1311;47.966;7.958;2023-05-07T01:52:13;11.40;99.90
2603;DHT22;1311;47.966;7.958;2023-05-07T01:54:39;11.40;99.90
2603;DHT22;1311;47.966;7.958;2023-05-07T01:57:08;11.40;99.90
2603;DHT22;1311;47.966;7.958;2023-05-07T01:59:34;11.40;99.90
2603;DHT22;1311;47.966;7.958;2023-05-07T02:02:01;11.30;99.90
2603;DHT22;1311;47.966;7.958;2023-05-07T02:04:28;11.30;99.90
2603;DHT22;1311;47.966;7.958;2023-05-07T02:06:54;11.30;99.90
2603;DHT22;1311;47.966;7.958;2023-05-07T02:09:21;11.30;99.90
2603;DHT22;1311;47.966;7.958;2023-05-07T02:11:49;11.30;99.90
2603;DHT22;1311;47.966;7.958;2023-05-07T02:14:17;11.20;99.90
2603;DHT22;1311;47.966;7.958;2023-05-07T02:16:45;11.20;99.90
2603;DHT22;1311;47.966;7.958;2023-05-07T02:19:12;11.20;99.90
2603;DHT22;1311;47.966;7.958;2023-05-07T02:21:39;11.30;99.90
2603;DHT22;1311;47.966;7.958;2023-05-07T02:24:06;11.30;99.90
2603;DHT22;1311;47.966;7.958;2023-05-07T02:26:32;11.30;99.90
2603;DHT22;1311;47.966;7.958;2023-05-07T02:28:59;11.20;99.90
2603;DHT22;1311;47.966;7.958;2023-05-07T02:31:27;11.10;99.90
2603;DHT22;1311;47.966;7.958;2023-05-07T02:33:54;11.10;99.90
2603;DHT22;1311;47.966;7.958;2023-05-07T02:36:21;11.00;99.90
2603;DHT22;1311;47.966;7.958;2023-05-07T02:38:47;11.00;99.90
2603;DHT22;1311;47.966;7.958;2023-05-07T02:41:14;10.90;99.90
2603;DHT22;1311;47.966;7.958;2023-05-07T02:43:41;10.90;99.90
2603;DHT22;1311;47.966;7.958;2023-05-07T02:46:08;10.80;99.90
2603;DHT22;1311;47.966;7.958;2023-05-07T02:48:37;10.80;99.90
2603;DHT22;1311;47.966;7.958;2023-05-07T02:51:04;10.80;99.90
2603;DHT22;1311;47.966;7.958;2023-05-07T02:53:31;10.80;99.90
2603;DHT22;1311;47.966;7.958;2023-05-07T02:56:00;10.80;99.90
2603;DHT22;1311;47.966;7.958;2023-05-07T02:58:26;10.80;99.90
2603;DHT22;1311;47.966;7.958;2023-05-07T03:00:53;10.80;99.90
2603;DHT22;1311;47.966;7.958;2023-05-07T03:03:21;10.70;99.90
2603;DHT22;1311;47.966;7.958;2023-05-07T03:05:49;10.70;99.90
2603;DHT22;1311;47.966;7.958;2023-05-07T03:08:15;10.70;99.90
2603;DHT22;1311;47.966;7.958;2023-05-07T03:10:42;10.70;99.90
2603;DHT22;1311;47.966;7.958;2023-05-07T03:13:09;10.70;99.90
2603;DHT22;1311;47.966;7.958;2023-05-07T03:15:36;10.70;99.90
2603;DHT22;1311;47.966;7.958;2023-05-07T03:18:03;10.70;99.90
2603;DHT22;1311;47.966;7.958;2023-05-07T03:20:29;10.70;99.90
2603;DHT22;1311;47.966;7.958;2023-05-07T03:22:58;10.60;99.90
2603;DHT22;1311;47.966;7.958;2023-05-07T03:25:24;10.60;99.90
2603;DHT22;1311;47.966;7.958;2023-05-07T03:27:51;10.60;99.90
2603;DHT22;1311;47.966;7.958;2023-05-07T03:30:18;10.60;99.90
2603;DHT22;1311;47.966;7.958;2023-05-07T03:32:45;10.60;99.90
2603;DHT22;1311;47.966;7.958;2023-05-07T03:35:12;10.60;99.90
2603;DHT22;1311;47.966;7.958;2023-05-07T03:37:39;10.60;99.90
2603;DHT22;1311;47.966;7.958;2023-05-07T03:40:08;10.60;99.90
2603;DHT22;1311;47.966;7.958;2023-05-07T03:42:35;10.60;99.90
2603;DHT22;1311;47.966;7.958;2023-05-07T03:45:03;10.70;99.90
2603;DHT22;1311;47.966;7.958;2023-05-07T03:47:30;10.70;99.90
2603;DHT22;1311;47.966;7.958;2023-05-07T03:49:56;10.70;99.90
2603;DHT22;1311;47.966;7.958;2023-05-07T03:52:23;10.60;99.90
2603;DHT22;1311;47.966;7.958;2023-05-07T03:54:51;10.70;99.90
2603;DHT22;1311;47.966;7.958;2023-05-07T03:57:20;10.70;99.90
2603;DHT22;1311;47.966;7.958;2023-05-07T03:59:46;10.60;99.90
2603;DHT22;1311;47.966;7.958;2023-05-07T04:02:13;10.60;99.90
2603;DHT22;1311;47.966;7.958;2023-05-07T04:04:40;10.60;99.90
2603;DHT22;1311;47.966;7.958;2023-05-07T04:07:07;10.60;99.90
2603;DHT22;1311;47.966;7.958;2023-05-07T04:09:33;10.60;99.90
2603;DHT22;1311;47.966;7.958;2023-05-07T04:12:00;10.60;99.90
2603;DHT22;1311;47.966;7.958;2023-05-07T04:14:29;10.60;99.90
2603;DHT22;1311;47.966;7.958;2023-05-07T04:16:57;10.70;99.90
2603;DHT22;1311;47.966;7.958;2023-05-07T04:19:24;10.70;99.90
2603;DHT22;1311;47.966;7.958;2023-05-07T04:21:51;10.80;99.90
2603;DHT22;1311;47.966;7.958;2023-05-07T04:24:18;10.80;99.90
2603;DHT22;1311;47.966;7.958;2023-05-07T04:26:44;10.90;99.90
2603;DHT22;1311;47.966;7.958;2023-05-07T04:29:11;11.00;99.90
2603;DHT22;1311;47.966;7.958;2023-05-07T04:31:39;11.10;99.90
2603;DHT22;1311;47.966;7.958;2023-05-07T04:34:06;11.20;99.90
2603;DHT22;1311;47.966;7.958;2023-05-07T04:36:34;11.30;99.90
2603;DHT22;1311;47.966;7.958;2023-05-07T04:39:02;11.40;99.90
2603;DHT22;1311;47.966;7.958;2023-05-07T04:41:29;11.50;99.90
2603;DHT22;1311;47.966;7.958;2023-05-07T04:43:56;11.70;99.90
2603;DHT22;1311;47.966;7.958;2023-05-07T04:46:24;11.80;99.90
2603;DHT22;1311;47.966;7.958;2023-05-07T04:48:52;12.00;99.90
2603;DHT22;1311;47.966;7.958;2023-05-07T04:51:19;12.40;99.90
2603;DHT22;1311;47.966;7.958;2023-05-07T04:53:46;13.10;99.90
2603;DHT22;1311;47.966;7.958;2023-05-07T04:56:12;14.00;99.90
2603;DHT22;1311;47.966;7.958;2023-05-07T04:58:39;15.40;99.90
2603;DHT22;1311;47.966;7.958;2023-05-07T05:01:06;16.90;99.90
2603;DHT22;1311;47.966;7.958;2023-05-07T05:03:33;17.70;99.90
2603;DHT22;1311;47.966;7.958;2023-05-07T05:06:01;17.70;99.90
2603;DHT22;1311;47.966;7.958;2023-05-07T05:08:27;17.50;99.90
2603;DHT22;1311;47.966;7.958;2023-05-07T05:10:56;17.50;99.90
2603;DHT22;1311;47.966;7.958;2023-05-07T05:13:22;17.60;99.90
2603;DHT22;1311;47.966;7.958;2023-05-07T05:15:49;18.30;99.90
2603;DHT22;1311;47.966;7.958;2023-05-07T05:18:16;18.80;99.90
2603;DHT22;1311;47.966;7.958;2023-05-07T05:20:43;19.20;99.90
2603;DHT22;1311;47.966;7.958;2023-05-07T05:23:11;18.60;99.90
2603;DHT22;1311;47.966;7.958;2023-05-07T05:25:38;18.00;99.90
2603;DHT22;1311;47.966;7.958;2023-05-07T05:28:05;17.50;99.90
2603;DHT22;1311;47.966;7.958;2023-05-07T05:30:32;17.10;99.90
2603;DHT22;1311;47.966;7.958;2023-05-07T05:32:59;17.30;99.90
2603;DHT22;1311;47.966;7.958;2023-05-07T05:35:26;17.60;99.90
2603;DHT22;1311;47.966;7.958;2023-05-07T05:37:53;17.10;99.90
2603;DHT22;1311;47.966;7.958;2023-05-07T05:40:21;16.90;99.90
2603;DHT22;1311;47.966;7.958;2023-05-07T05:42:47;16.60;99.90
2603;DHT22;1311;47.966;7.958;2023-05-07T05:45:14;16.30;99.90
2603;DHT22;1311;47.966;7.958;2023-05-07T05:47:41;16.50;99.90
2603;DHT22;1311;47.966;7.958;2023-05-07T05:50:08;17.10;99.90
2603;DHT22;1311;47.966;7.958;2023-05-07T05:52:35;18.80;99.90
2603;DHT22;1311;47.966;7.958;2023-05-07T05:55:02;18.30;99.90
2603;DHT22;1311;47.966;7.958;2023-05-07T05:57:30;17.30;99.90
2603;DHT22;1311;47.966;7.958;2023-05-07T05:59:57;16.90;99.90
2603;DHT22;1311;47.966;7.958;2023-05-07T06:02:24;16.70;99.90
2603;DHT22;1311;47.966;7.958;2023-05-07T06:04:51;16.80;99.90
2603;DHT22;1311;47.966;7.958;2023-05-07T06:07:17;17.80;99.90
2603;DHT22;1311;47.966;7.958;2023-05-07T06:09:44;18.50;99.90
2603;DHT22;1311;47.966;7.958;2023-05-07T06:12:11;18.70;99.90
2603;DHT22;1311;47.966;7.958;2023-05-07T06:14:39;18.90;99.90
2603;DHT22;1311;47.966;7.958;2023-05-07T06:17:07;18.90;99.90
2603;DHT22;1311;47.966;7.958;2023-05-07T06:19:33;19.10;99.90
2603;DHT22;1311;47.966;7.958;2023-05-07T06:22:00;19.00;99.90
2603;DHT22;1311;47.966;7.958;2023-05-07T06:24:28;19.00;99.90
2603;DHT22;1311;47.966;7.958;2023-05-07T06:26:55;19.30;99.90
2603;DHT22;1311;47.966;7.958;2023-05-07T06:29:23;19.50;99.90
2603;DHT22;1311;47.966;7.958;2023-05-07T06:31:52;19.70;99.90
2603;DHT22;1311;47.966;7.958;2023-05-07T06:34:19;19.50;99.90
2603;DHT22;1311;47.966;7.958;2023-05-07T06:36:46;19.80;99.90
2603;DHT22;1311;47.966;7.958;2023-05-07T06:39:13;20.00;99.90
2603;DHT22;1311;47.966;7.958;2023-05-07T06:41:39;19.80;99.90
2603;DHT22;1311;47.966;7.958;2023-05-07T06:44:06;19.90;99.90
2603;DHT22;1311;47.966;7.958;2023-05-07T06:46:33;19.90;99.90
2603;DHT22;1311;47.966;7.958;2023-05-07T06:49:01;19.60;99.90
2603;DHT22;1311;47.966;7.958;2023-05-07T06:51:28;19.40;99.90
2603;DHT22;1311;47.966;7.958;2023-05-07T06:53:55;19.20;99.90
2603;DHT22;1311;47.966;7.958;2023-05-07T06:56:22;19.10;99.90
2603;DHT22;1311;47.966;7.958;2023-05-07T06:58:49;19.00;99.90
2603;DHT22;1311;47.966;7.958;2023-05-07T07:01:16;18.70;99.90
2603;DHT22;1311;47.966;7.958;2023-05-07T07:03:43;18.80;99.90
2603;DHT22;1311;47.966;7.958;2023-05-07T07:06:11;18.80;99.90
2603;DHT22;1311;47.966;7.958;2023-05-07T07:08:38;18.80;99.90
2603;DHT22;1311;47.966;7.958;2023-05-07T07:11:05;18.70;99.90
2603;DHT22;1311;47.966;7.958;2023-05-07T07:13:32;18.60;99.90
2603;DHT22;1311;47.966;7.958;2023-05-07T07:15:59;18.60;99.90
2603;DHT22;1311;47.966;7.958;2023-05-07T07:18:26;18.50;99.90
2603;DHT22;1311;47.966;7.958;2023-05-07T07:20:53;18.40;99.90
2603;DHT22;1311;47.966;7.958;2023-05-07T07:23:22;18.20;99.90
2603;DHT22;1311;47.966;7.958;2023-05-07T07:25:48;18.10;99.90
2603;DHT22;1311;47.966;7.958;2023-05-07T07:28:20;18.30;99.90
2603;DHT22;1311;47.966;7.958;2023-05-07T07:30:47;18.30;99.90
2603;DHT22;1311;47.966;7.958;2023-05-07T07:33:14;18.30;99.90
2603;DHT22;1311;47.966;7.958;2023-05-07T07:35:41;18.30;99.90
2603;DHT22;1311;47.966;7.958;2023-05-07T07:38:08;18.40;99.90
2603;DHT22;1311;47.966;7.958;2023-05-07T07:40:37;18.20;99.90
2603;DHT22;1311;47.966;7.958;2023-05-07T07:43:03;18.10;99.90
2603;DHT22;1311;47.966;7.958;2023-05-07T07:45:31;18.30;99.90
2603;DHT22;1311;47.966;7.958;2023-05-07T07:47:58;18.50;99.90
2603;DHT22;1311;47.966;7.958;2023-05-07T07:50:24;18.70;99.90
2603;DHT22;1311;47.966;7.958;2023-05-07T07:52:51;18.70;99.90
2603;DHT22;1311;47.966;7.958;2023-05-07T07:55:20;18.90;99.90
2603;DHT22;1311;47.966;7.958;2023-05-07T07:57:49;19.20;99.90
2603;DHT22;1311;47.966;7.958;2023-05-07T08:00:16;19.20;99.90
2603;DHT22;1311;47.966;7.958;2023-05-07T08:02:43;19.10;99.90
2603;DHT22;1311;47.966;7.958;2023-05-07T08:05:10;19.00;99.90
2603;DHT22;1311;47.966;7.958;2023-05-07T08:07:37;19.10;99.90
2603;DHT22;1311;47.966;7.958;2023-05-07T08:10:04;19.10;99.90
2603;DHT22;1311;47.966;7.958;2023-05-07T08:12:31;19.20;99.90
2603;DHT22;1311;47.966;7.958;2023-05-07T08:14:59;19.20;99.90
2603;DHT22;1311;47.966;7.958;2023-05-07T08:17:26;19.20;99.90
2603;DHT22;1311;47.966;7.958;2023-05-07T08:19:53;19.40;99.90
2603;DHT22;1311;47.966;7.958;2023-05-07T08:22:19;19.50;99.90
2603;DHT22;1311;47.966;7.958;2023-05-07T08:24:47;19.50;99.90
2603;DHT22;1311;47.966;7.958;2023-05-07T08:27:14;19.90;99.90
2603;DHT22;1311;47.966;7.958;2023-05-07T08:29:41;20.00;99.90
2603;DHT22;1311;47.966;7.958;2023-05-07T08:32:09;20.50;99.90
2603;DHT22;1311;47.966;7.958;2023-05-07T08:34:35;21.00;99.90
2603;DHT22;1311;47.966;7.958;2023-05-07T08:37:02;21.10;99.90
2603;DHT22;1311;47.966;7.958;2023-05-07T08:39:29;21.40;99.90
2603;DHT22;1311;47.966;7.958;2023-05-07T08:41:57;21.50;99.90
2603;DHT22;1311;47.966;7.958;2023-05-07T08:44:28;21.60;99.90
2603;DHT22;1311;47.966;7.958;2023-05-07T08:46:56;21.50;99.90
2603;DHT22;1311;47.966;7.958;2023-05-07T08:49:26;21.80;99.90
2603;DHT22;1311;47.966;7.958;2023-05-07T08:51:53;22.10;99.90
2603;DHT22;1311;47.966;7.958;2023-05-07T08:54:21;22.20;88.30
2603;DHT22;1311;47.966;7.958;2023-05-07T08:56:48;22.20;44.50
2603;DHT22;1311;47.966;7.958;2023-05-07T08:59:15;21.90;35.70
2603;DHT22;1311;47.966;7.958;2023-05-07T09:01:42;21.70;37.40
2603;DHT22;1311;47.966;7.958;2023-05-07T09:04:09;21.40;39.40
2603;DHT22;1311;47.966;7.958;2023-05-07T09:06:37;21.50;63.50
2603;DHT22;1311;47.966;7.958;2023-05-07T09:09:07;21.30;55.70
2603;DHT22;1311;47.966;7.958;2023-05-07T09:11:34;21.20;53.30
2603;DHT22;1311;47.966;7.958;2023-05-07T09:14:01;21.10;95.40
2603;DHT22;1311;47.966;7.958;2023-05-07T09:16:29;21.00;99.90
2603;DHT22;1311;47.966;7.958;2023-05-07T09:18:58;21.00;99.90
2603;DHT22;1311;47.966;7.958;2023-05-07T09:21:25;21.00;99.90
2603;DHT22;1311;47.966;7.958;2023-05-07T09:23:55;21.10;99.90
2603;DHT22;1311;47.966;7.958;2023-05-07T09:26:22;21.00;99.90
2603;DHT22;1311;47.966;7.958;2023-05-07T09:28:49;21.00;99.90
2603;DHT22;1311;47.966;7.958;2023-05-07T09:31:16;21.20;99.90
2603;DHT22;1311;47.966;7.958;2023-05-07T09:33:43;21.60;99.90
2603;DHT22;1311;47.966;7.958;2023-05-07T09:36:10;21.90;99.90
2603;DHT22;1311;47.966;7.958;2023-05-07T09:38:37;21.90;95.10
2603;DHT22;1311;47.966;7.958;2023-05-07T09:41:07;22.00;92.40
2603;DHT22;1311;47.966;7.958;2023-05-07T09:43:35;21.80;86.90
2603;DHT22;1311;47.966;7.958;2023-05-07T09:46:12;22.00;91.10
2603;DHT22;1311;47.966;7.958;2023-05-07T09:48:41;21.70;92.60
2603;DHT22;1311;47.966;7.958;2023-05-07T09:51:22;21.50;99.90
2603;DHT22;1311;47.966;7.958;2023-05-07T09:53:52;21.60;99.90
2603;DHT22;1311;47.966;7.958;2023-05-07T09:56:21;21.30;99.90
2603;DHT22;1311;47.966;7.958;2023-05-07T09:58:48;21.40;99.90
2603;DHT22;1311;47.966;7.958;2023-05-07T10:01:17;21.40;99.90
2603;DHT22;1311;47.966;7.958;2023-05-07T10:03:45;21.40;99.90
2603;DHT22;1311;47.966;7.958;2023-05-07T10:06:13;21.30;99.90
2603;DHT22;1311;47.966;7.958;2023-05-07T10:08:42;21.10;99.90
2603;DHT22;1311;47.966;7.958;2023-05-07T10:11:09;21.00;99.90
2603;DHT22;1311;47.966;7.958;2023-05-07T10:13:38;20.60;99.90
2603;DHT22;1311;47.966;7.958;2023-05-07T10:16:05;20.20;99.90
2603;DHT22;1311;47.966;7.958;2023-05-07T10:18:33;20.00;99.90
2603;DHT22;1311;47.966;7.958;2023-05-07T10:21:04;19.50;99.90
2603;DHT22;1311;47.966;7.958;2023-05-07T10:23:33;19.10;99.90
2603;DHT22;1311;47.966;7.958;2023-05-07T10:26:06;18.50;99.90
2603;DHT22;1311;47.966;7.958;2023-05-07T10:28:38;18.10;99.90
2603;DHT22;1311;47.966;7.958;2023-05-07T10:31:18;18.10;99.90
2603;DHT22;1311;47.966;7.958;2023-05-07T10:33:51;17.80;99.90
2603;DHT22;1311;47.966;7.958;2023-05-07T10:36:19;17.60;99.90
2603;DHT22;1311;47.966;7.958;2023-05-07T10:38:47;17.50;99.90
2603;DHT22;1311;47.966;7.958;2023-05-07T10:41:14;17.30;99.90
2603;DHT22;1311;47.966;7.958;2023-05-07T10:43:44;17.30;99.90
2603;DHT22;1311;47.966;7.958;2023-05-07T10:46:15;17.40;99.90
2603;DHT22;1311;47.966;7.958;2023-05-07T10:49:07;17.50;99.90
2603;DHT22;1311;47.966;7.958;2023-05-07T10:51:36;17.50;99.90
2603;DHT22;1311;47.966;7.958;2023-05-07T10:54:22;17.80;99.90
2603;DHT22;1311;47.966;7.958;2023-05-07T10:56:50;18.20;99.90
2603;DHT22;1311;47.966;7.958;2023-05-07T10:59:36;18.50;99.90
2603;DHT22;1311;47.966;7.958;2023-05-07T11:02:07;18.90;99.90
2603;DHT22;1311;47.966;7.958;2023-05-07T11:04:35;19.40;99.90
2603;DHT22;1311;47.966;7.958;2023-05-07T11:10:03;19.80;99.90
2603;DHT22;1311;47.966;7.958;2023-05-07T11:12:53;19.70;99.90
2603;DHT22;1311;47.966;7.958;2023-05-07T11:15:38;19.60;99.90
2603;DHT22;1311;47.966;7.958;2023-05-07T11:18:07;19.70;99.90
2603;DHT22;1311;47.966;7.958;2023-05-07T11:20:53;19.50;99.90
2603;DHT22;1311;47.966;7.958;2023-05-07T11:26:47;19.70;99.90
2603;DHT22;1311;47.966;7.958;2023-05-07T11:29:15;20.60;99.90
2603;DHT22;1311;47.966;7.958;2023-05-07T11:31:44;21.00;99.90
2603;DHT22;1311;47.966;7.958;2023-05-07T11:34:15;21.10;99.90
2603;DHT22;1311;47.966;7.958;2023-05-07T11:36:47;21.40;99.90
2603;DHT22;1311;47.966;7.958;2023-05-07T11:39:25;21.70;99.90
2603;DHT22;1311;47.966;7.958;2023-05-07T11:41:52;21.50;99.90
2603;DHT22;1311;47.966;7.958;2023-05-07T11:44:19;21.60;99.90
2603;DHT22;1311;47.966;7.958;2023-05-07T11:46:47;21.70;99.90
2603;DHT22;1311;47.966;7.958;2023-05-07T11:49:14;22.00;99.90
2603;DHT22;1311;47.966;7.958;2023-05-07T11:51:41;22.10;99.90
2603;DHT22;1311;47.966;7.958;2023-05-07T11:54:09;22.10;99.90
2603;DHT22;1311;47.966;7.958;2023-05-07T11:56:39;22.00;99.90
2603;DHT22;1311;47.966;7.958;2023-05-07T11:59:05;22.20;99.90
2603;DHT22;1311;47.966;7.958;2023-05-07T12:01:35;22.00;99.90
2603;DHT22;1311;47.966;7.958;2023-05-07T12:04:04;22.30;99.90
2603;DHT22;1311;47.966;7.958;2023-05-07T12:06:35;22.50;99.90
2603;DHT22;1311;47.966;7.958;2023-05-07T12:09:02;22.70;99.90
2603;DHT22;1311;47.966;7.958;2023-05-07T12:11:29;22.30;99.90
2603;DHT22;1311;47.966;7.958;2023-05-07T12:13:56;22.00;99.90
2603;DHT22;1311;47.966;7.958;2023-05-07T12:16:23;21.90;99.90
2603;DHT22;1311;47.966;7.958;2023-05-07T12:18:50;21.90;99.90
2603;DHT22;1311;47.966;7.958;2023-05-07T12:21:19;21.90;99.90
2603;DHT22;1311;47.966;7.958;2023-05-07T12:23:46;22.40;99.90
2603;DHT22;1311;47.966;7.958;2023-05-07T12:26:13;22.60;99.90
2603;DHT22;1311;47.966;7.958;2023-05-07T12:28:40;22.70;99.90
2603;DHT22;1311;47.966;7.958;2023-05-07T12:31:07;22.80;99.90
2603;DHT22;1311;47.966;7.958;2023-05-07T12:33:35;22.80;99.90
2603;DHT22;1311;47.966;7.958;2023-05-07T12:36:06;22.80;99.90
2603;DHT22;1311;47.966;7.958;2023-05-07T12:38:39;22.70;99.90
2603;DHT22;1311;47.966;7.958;2023-05-07T12:41:07;22.30;99.90
2603;DHT22;1311;47.966;7.958;2023-05-07T12:43:34;22.20;99.90
2603;DHT22;1311;47.966;7.958;2023-05-07T12:46:04;22.10;99.90
2603;DHT22;1311;47.966;7.958;2023-05-07T12:48:31;22.90;99.90
2603;DHT22;1311;47.966;7.958;2023-05-07T12:50:59;23.00;99.90
2603;DHT22;1311;47.966;7.958;2023-05-07T12:53:27;23.10;99.90
2603;DHT22;1311;47.966;7.958;2023-05-07T12:55:57;23.50;99.90
2603;DHT22;1311;47.966;7.958;2023-05-07T12:58:25;23.00;99.90
2603;DHT22;1311;47.966;7.958;2023-05-07T13:00:54;22.50;99.90
2603;DHT22;1311;47.966;7.958;2023-05-07T13:03:25;22.10;99.90
2603;DHT22;1311;47.966;7.958;2023-05-07T13:05:52;21.90;99.90
2603;DHT22;1311;47.966;7.958;2023-05-07T13:08:30;21.40;99.90
2603;DHT22;1311;47.966;7.958;2023-05-07T13:11:00;21.10;99.90
2603;DHT22;1311;47.966;7.958;2023-05-07T13:13:29;20.80;99.90
2603;DHT22;1311;47.966;7.958;2023-05-07T13:15:55;20.80;99.90
2603;DHT22;1311;47.966;7.958;2023-05-07T13:18:23;20.20;99.90
2603;DHT22;1311;47.966;7.958;2023-05-07T13:20:50;20.00;99.90
2603;DHT22;1311;47.966;7.958;2023-05-07T13:23:17;19.80;99.90
2603;DHT22;1311;47.966;7.958;2023-05-07T13:25:44;19.60;99.90
2603;DHT22;1311;47.966;7.958;2023-05-07T13:28:12;19.50;99.90
2603;DHT22;1311;47.966;7.958;2023-05-07T13:30:39;19.50;99.90
2603;DHT22;1311;47.966;7.958;2023-05-07T13:33:07;19.40;99.90
2603;DHT22;1311;47.966;7.958;2023-05-07T13:35:34;19.30;99.90
2603;DHT22;1311;47.966;7.958;2023-05-07T13:38:02;19.20;99.90
2603;DHT22;1311;47.966;7.958;2023-05-07T13:40:29;19.20;99.90
2603;DHT22;1311;47.966;7.958;2023-05-07T13:42:57;19.20;99.90
2603;DHT22;1311;47.966;7.958;2023-05-07T13:45:26;19.40;99.90
2603;DHT22;1311;47.966;7.958;2023-05-07T13:47:55;19.30;99.90
2603;DHT22;1311;47.966;7.958;2023-05-07T13:50:22;19.30;99.90
2603;DHT22;1311;47.966;7.958;2023-05-07T13:52:48;19.60;99.90
2603;DHT22;1311;47.966;7.958;2023-05-07T13:55:17;19.70;99.90
2603;DHT22;1311;47.966;7.958;2023-05-07T13:57:44;20.00;99.90
2603;DHT22;1311;47.966;7.958;2023-05-07T14:00:11;20.10;99.90
2603;DHT22;1311;47.966;7.958;2023-05-07T14:02:40;20.20;99.90
2603;DHT22;1311;47.966;7.958;2023-05-07T14:05:07;20.50;99.90
2603;DHT22;1311;47.966;7.958;2023-05-07T14:07:34;20.80;99.90
2603;DHT22;1311;47.966;7.958;2023-05-07T14:10:01;20.70;99.90
2603;DHT22;1311;47.966;7.958;2023-05-07T14:12:28;21.10;99.90
2603;DHT22;1311;47.966;7.958;2023-05-07T14:14:55;21.50;99.90
2603;DHT22;1311;47.966;7.958;2023-05-07T14:17:22;21.50;99.90
2603;DHT22;1311;47.966;7.958;2023-05-07T14:19:52;21.40;99.90
2603;DHT22;1311;47.966;7.958;2023-05-07T14:22:20;21.40;99.90
2603;DHT22;1311;47.966;7.958;2023-05-07T14:24:47;21.50;99.90
2603;DHT22;1311;47.966;7.958;2023-05-07T14:27:13;21.50;99.90
2603;DHT22;1311;47.966;7.958;2023-05-07T14:29:40;21.60;99.90
2603;DHT22;1311;47.966;7.958;2023-05-07T14:32:08;21.50;99.90
2603;DHT22;1311;47.966;7.958;2023-05-07T14:34:34;21.60;99.90
2603;DHT22;1311;47.966;7.958;2023-05-07T14:37:03;21.60;99.90
2603;DHT22;1311;47.966;7.958;2023-05-07T14:39:29;21.70;99.90
2603;DHT22;1311;47.966;7.958;2023-05-07T14:41:57;21.60;99.90
2603;DHT22;1311;47.966;7.958;2023-05-07T14:44:23;21.70;99.90
2603;DHT22;1311;47.966;7.958;2023-05-07T14:46:50;21.90;99.90
2603;DHT22;1311;47.966;7.958;2023-05-07T14:49:17;21.80;99.90
2603;DHT22;1311;47.966;7.958;2023-05-07T14:51:44;21.80;99.90
2603;DHT22;1311;47.966;7.958;2023-05-07T14:54:13;22.00;99.90
2603;DHT22;1311;47.966;7.958;2023-05-07T14:56:40;22.20;99.90
2603;DHT22;1311;47.966;7.958;2023-05-07T14:59:08;21.80;99.90
2603;DHT22;1311;47.966;7.958;2023-05-07T15:01:35;21.50;99.90
2603;DHT22;1311;47.966;7.958;2023-05-07T15:04:03;21.20;99.90
2603;DHT22;1311;47.966;7.958;2023-05-07T15:06:30;20.90;99.90
2603;DHT22;1311;47.966;7.958;2023-05-07T15:08:57;20.70;99.90
2603;DHT22;1311;47.966;7.958;2023-05-07T15:11:25;20.60;99.90
2603;DHT22;1311;47.966;7.958;2023-05-07T15:13:52;20.50;99.90
2603;DHT22;1311;47.966;7.958;2023-05-07T15:16:19;20.50;99.90
2603;DHT22;1311;47.966;7.958;2023-05-07T15:18:46;20.40;99.90
2603;DHT22;1311;47.966;7.958;2023-05-07T15:21:13;20.40;99.90
2603;DHT22;1311;47.966;7.958;2023-05-07T15:23:40;20.20;99.90
2603;DHT22;1311;47.966;7.958;2023-05-07T15:26:07;20.10;99.90
2603;DHT22;1311;47.966;7.958;2023-05-07T15:28:36;20.10;99.90
2603;DHT22;1311;47.966;7.958;2023-05-07T15:31:03;20.40;99.90
2603;DHT22;1311;47.966;7.958;2023-05-07T15:33:30;20.90;99.90
2603;DHT22;1311;47.966;7.958;2023-05-07T15:35:57;21.50;99.90
2603;DHT22;1311;47.966;7.958;2023-05-07T15:38:24;21.50;99.90
2603;DHT22;1311;47.966;7.958;2023-05-07T15:40:51;21.60;99.90
2603;DHT22;1311;47.966;7.958;2023-05-07T15:43:18;21.60;99.90
2603;DHT22;1311;47.966;7.958;2023-05-07T15:45:47;21.50;99.90
2603;DHT22;1311;47.966;7.958;2023-05-07T15:48:14;21.50;99.90
2603;DHT22;1311;47.966;7.958;2023-05-07T15:50:40;21.40;99.90
2603;DHT22;1311;47.966;7.958;2023-05-07T15:53:07;21.60;99.90
2603;DHT22;1311;47.966;7.958;2023-05-07T15:55:35;21.60;99.90
2603;DHT22;1311;47.966;7.958;2023-05-07T15:58:01;21.70;99.90
2603;DHT22;1311;47.966;7.958;2023-05-07T16:00:30;21.70;99.90
2603;DHT22;1311;47.966;7.958;2023-05-07T16:02:58;21.60;99.90
2603;DHT22;1311;47.966;7.958;2023-05-07T16:05:25;21.60;99.90
2603;DHT22;1311;47.966;7.958;2023-05-07T16:07:52;21.40;99.90
2603;DHT22;1311;47.966;7.958;2023-05-07T16:10:19;21.10;97.30
2603;DHT22;1311;47.966;7.958;2023-05-07T16:12:45;20.80;89.60